createdAt,value
2018-12-02T00:01:12.507Z,61.76
2018-12-02T00:03:41.751Z,61.87
2018-12-02T00:06:11.020Z,61.93
2018-12-02T00:08:40.233Z,61.97
2018-12-02T00:11:11.788Z,61.94
2018-12-02T00:13:41.191Z,61.92
2018-12-02T00:16:10.578Z,62.05
2018-12-02T00:18:39.834Z,62.03
2018-12-02T00:21:10.083Z,61.93
2018-12-02T00:23:41.565Z,62.13
2018-12-02T00:26:10.868Z,62.07
2018-12-02T00:28:41.639Z,62.10
2018-12-02T00:31:11.629Z,62.10
2018-12-02T00:33:40.919Z,61.92
2018-12-02T00:36:10.451Z,62.11
2018-12-02T00:38:40.641Z,62.18
2018-12-02T00:41:09.993Z,62.17
2018-12-02T00:43:39.252Z,62.28
2018-12-02T00:46:08.469Z,62.31
2018-12-02T00:48:41.384Z,62.32
2018-12-02T00:51:11.450Z,62.33
2018-12-02T00:53:41.396Z,62.21
2018-12-02T00:56:09.533Z,62.33
2018-12-02T00:58:38.879Z,62.35
2018-12-02T01:01:08.176Z,62.45
2018-12-02T01:03:37.535Z,62.42
2018-12-02T01:06:06.940Z,62.51
2018-12-02T01:08:36.379Z,62.46
2018-12-02T01:11:06.029Z,62.64
2018-12-02T01:13:35.402Z,62.53
2018-12-02T01:16:05.136Z,62.49
2018-12-02T01:18:34.592Z,62.49
2018-12-02T01:21:03.837Z,62.53
2018-12-02T01:23:33.123Z,62.72
2018-12-02T01:26:02.439Z,62.73
2018-12-02T01:28:31.745Z,62.49
2018-12-02T01:31:00.959Z,62.73
2018-12-02T01:33:30.619Z,62.73
2018-12-02T01:36:00.838Z,62.63
2018-12-02T01:38:30.860Z,62.54
2018-12-02T01:41:00.182Z,62.78
2018-12-02T01:43:29.418Z,62.73
2018-12-02T01:45:58.708Z,62.89
2018-12-02T01:48:28.088Z,62.77
2018-12-02T01:50:57.389Z,62.92
2018-12-02T01:53:26.717Z,62.71
2018-12-02T01:55:56.884Z,62.87
2018-12-02T01:58:26.257Z,63.00
2018-12-02T02:00:55.748Z,62.83
2018-12-02T02:03:25.113Z,62.85
2018-12-02T02:05:54.344Z,62.87
2018-12-02T02:08:24.326Z,62.96
2018-12-02T02:10:54.062Z,62.90
2018-12-02T02:13:24.164Z,63.00
2018-12-02T02:15:53.517Z,63.04
2018-12-02T02:18:23.113Z,63.14
2018-12-02T02:20:52.453Z,63.02
2018-12-02T02:23:21.724Z,63.11
2018-12-02T02:25:51.045Z,63.30
2018-12-02T02:28:20.336Z,63.12
2018-12-02T02:30:49.600Z,63.14
2018-12-02T02:33:19.388Z,63.21
2018-12-02T02:35:48.635Z,63.16
2018-12-02T02:38:17.900Z,63.16
2018-12-02T02:40:47.145Z,63.21
2018-12-02T02:43:16.446Z,63.18
2018-12-02T02:45:45.727Z,63.22
2018-12-02T02:48:15.079Z,63.41
2018-12-02T02:50:44.487Z,63.34
2018-12-02T02:53:13.790Z,63.38
2018-12-02T02:55:43.069Z,63.41
2018-12-02T02:58:12.319Z,63.46
2018-12-02T03:00:43.697Z,63.43
2018-12-02T03:03:13.348Z,63.52
2018-12-02T03:05:44.822Z,63.51
2018-12-02T03:08:14.143Z,63.43
2018-12-02T03:10:43.411Z,63.61
2018-12-02T03:13:13.357Z,63.42
2018-12-02T03:15:42.672Z,63.71
2018-12-02T03:18:13.238Z,63.55
2018-12-02T03:20:42.629Z,63.60
2018-12-02T03:23:11.925Z,63.65
2018-12-02T03:25:41.150Z,63.53
2018-12-02T03:28:11.282Z,63.65
2018-12-02T03:30:41.066Z,63.79
2018-12-02T03:33:10.557Z,63.79
2018-12-02T03:35:40.599Z,63.71
2018-12-02T03:38:09.833Z,63.82
2018-12-02T03:40:39.090Z,63.84
2018-12-02T03:43:08.341Z,63.81
2018-12-02T03:45:37.555Z,63.84
2018-12-02T03:48:06.836Z,64.05
2018-12-02T03:50:36.080Z,64.03
2018-12-02T03:53:05.798Z,64.08
2018-12-02T03:55:35.606Z,63.86
2018-12-02T03:58:04.956Z,63.97
2018-12-02T04:00:40.893Z,64.05
2018-12-02T04:03:10.182Z,64.13
2018-12-02T04:05:39.505Z,64.18
2018-12-02T04:08:08.739Z,64.06
2018-12-02T04:10:37.944Z,64.20
2018-12-02T04:13:07.180Z,64.21
2018-12-02T04:15:36.684Z,64.19
2018-12-02T04:18:06.749Z,64.25
2018-12-02T04:20:37.464Z,64.19
2018-12-02T04:23:08.088Z,64.23
2018-12-02T04:25:37.319Z,64.32
2018-12-02T04:28:07.383Z,64.33
2018-12-02T04:30:36.678Z,64.45
2018-12-02T04:33:06.190Z,64.34
2018-12-02T04:35:36.411Z,64.40
2018-12-02T04:38:05.793Z,64.48
2018-12-02T04:40:35.272Z,64.46
2018-12-02T04:43:04.529Z,64.51
2018-12-02T04:45:33.753Z,64.41
2018-12-02T04:48:03.025Z,64.46
2018-12-02T04:50:32.263Z,64.56
2018-12-02T04:53:01.515Z,64.46
2018-12-02T04:55:31.038Z,64.51
2018-12-02T04:58:00.309Z,64.49
2018-12-02T05:00:29.506Z,64.73
2018-12-02T05:02:58.782Z,64.58
2018-12-02T05:05:28.119Z,64.63
2018-12-02T05:07:57.428Z,64.67
2018-12-02T05:10:26.635Z,64.64
2018-12-02T05:12:55.944Z,64.77
2018-12-02T05:15:25.209Z,64.77
2018-12-02T05:17:54.452Z,64.78
2018-12-02T05:20:23.734Z,64.81
2018-12-02T05:22:53.321Z,64.83
2018-12-02T05:25:22.759Z,64.86
2018-12-02T05:27:52.164Z,64.93
2018-12-02T05:30:22.364Z,64.82
2018-12-02T05:32:53.485Z,65.03
2018-12-02T05:35:23.915Z,65.05
2018-12-02T05:37:53.220Z,64.88
2018-12-02T05:40:23.586Z,64.93
2018-12-02T05:42:53.683Z,65.02
2018-12-02T05:45:23.188Z,65.02
2018-12-02T05:47:52.443Z,64.96
2018-12-02T05:50:22.721Z,65.02
2018-12-02T05:52:55.013Z,65.08
2018-12-02T05:55:27.511Z,65.15
2018-12-02T05:57:57.467Z,65.03
2018-12-02T06:00:26.672Z,65.12
2018-12-02T06:02:56.933Z,64.91
2018-12-02T06:05:26.214Z,65.13
2018-12-02T06:07:55.496Z,65.24
2018-12-02T06:10:24.709Z,65.21
2018-12-02T06:12:53.982Z,65.16
2018-12-02T06:15:23.279Z,65.07
2018-12-02T06:17:52.608Z,65.26
2018-12-02T06:20:24.256Z,65.38
2018-12-02T06:22:56.034Z,65.33
2018-12-02T06:25:25.315Z,65.37
2018-12-02T06:27:54.827Z,65.42
2018-12-02T06:30:25.053Z,65.28
2018-12-02T06:32:58.556Z,65.44
2018-12-02T06:35:28.150Z,65.22
2018-12-02T06:37:59.657Z,65.33
2018-12-02T06:40:29.425Z,65.44
2018-12-02T06:42:59.539Z,65.46
2018-12-02T06:45:28.847Z,65.43
2018-12-02T06:47:58.125Z,65.47
2018-12-02T06:50:29.299Z,65.71
2018-12-02T06:52:58.590Z,65.66
2018-12-02T06:55:54.886Z,65.60
2018-12-02T06:58:37.221Z,65.53
2018-12-02T07:01:28.281Z,65.63
2018-12-02T07:04:05.311Z,65.62
2018-12-02T07:06:35.150Z,65.71
2018-12-02T07:09:05.447Z,65.59
2018-12-02T07:11:34.925Z,65.64
2018-12-02T07:14:05.322Z,65.69
2018-12-02T07:16:34.704Z,65.81
2018-12-02T07:19:08.728Z,65.62
2018-12-02T07:21:39.905Z,65.75
2018-12-02T07:24:11.685Z,65.62
2018-12-02T07:26:42.940Z,65.86
2018-12-02T07:29:12.310Z,65.96
2018-12-02T07:31:41.526Z,65.86
2018-12-02T07:34:12.309Z,65.93
2018-12-02T07:36:41.561Z,66.02
2018-12-02T07:39:20.612Z,65.93
2018-12-02T07:41:50.564Z,65.96
2018-12-02T07:44:19.757Z,66.05
2018-12-02T07:46:49.005Z,66.12
2018-12-02T07:49:18.288Z,66.00
2018-12-02T07:51:47.498Z,66.04
2018-12-02T07:54:16.710Z,66.05
2018-12-02T07:56:46.028Z,66.14
2018-12-02T07:59:15.330Z,66.10
2018-12-02T08:01:44.659Z,66.15
2018-12-02T08:04:13.974Z,66.22
2018-12-02T08:06:44.025Z,66.15
2018-12-02T08:09:13.267Z,66.07
2018-12-02T08:11:42.551Z,66.30
2018-12-02T08:14:11.806Z,66.39
2018-12-02T08:16:41.027Z,66.34
2018-12-02T08:19:10.291Z,66.25
2018-12-02T08:21:39.536Z,66.38
2018-12-02T08:24:08.804Z,66.43
2018-12-02T08:26:38.025Z,66.42
2018-12-02T08:29:08.198Z,66.35
2018-12-02T08:31:38.256Z,66.40
2018-12-02T08:34:07.558Z,66.47
2018-12-02T08:36:36.791Z,66.58
2018-12-02T08:39:09.347Z,66.54
2018-12-02T08:41:38.613Z,66.65
2018-12-02T08:44:08.543Z,66.55
2018-12-02T08:46:38.374Z,66.66
2018-12-02T08:49:07.608Z,66.65
2018-12-02T08:51:36.865Z,66.78
2018-12-02T08:54:06.196Z,66.68
2018-12-02T08:56:35.410Z,66.80
2018-12-02T08:59:05.292Z,66.70
2018-12-02T09:01:34.514Z,66.75
2018-12-02T09:04:04.305Z,66.83
2018-12-02T09:06:33.620Z,66.91
2018-12-02T09:09:04.629Z,66.80
2018-12-02T09:11:33.873Z,66.80
2018-12-02T09:14:03.690Z,66.92
2018-12-02T09:16:32.927Z,66.88
2018-12-02T09:19:02.289Z,66.90
2018-12-02T09:21:31.538Z,66.90
2018-12-02T09:24:01.757Z,66.82
2018-12-02T09:26:31.045Z,67.03
2018-12-02T09:29:00.276Z,66.89
2018-12-02T09:31:29.603Z,67.03
2018-12-02T09:33:59.387Z,66.84
2018-12-02T09:36:28.745Z,66.99
2018-12-02T09:38:58.081Z,66.97
2018-12-02T09:41:27.325Z,67.21
2018-12-02T09:43:56.612Z,66.99
2018-12-02T09:46:27.156Z,67.34
2018-12-02T09:48:56.531Z,67.15
2018-12-02T09:51:25.858Z,67.22
2018-12-02T09:53:55.147Z,67.27
2018-12-02T09:56:24.474Z,67.44
2018-12-02T09:58:53.667Z,67.36
2018-12-02T10:01:23.063Z,67.22
2018-12-02T10:03:52.829Z,67.45
2018-12-02T10:06:22.104Z,67.36
2018-12-02T10:08:51.389Z,67.40
2018-12-02T10:11:20.661Z,67.49
2018-12-02T10:13:50.447Z,67.49
2018-12-02T10:16:19.645Z,67.44
2018-12-02T10:18:49.017Z,67.61
2018-12-02T10:21:18.448Z,67.48
2018-12-02T10:23:47.749Z,67.62
2018-12-02T10:26:16.984Z,67.49
2018-12-02T10:28:47.656Z,67.46
2018-12-02T10:31:16.885Z,67.69
2018-12-02T10:33:46.103Z,67.58
2018-12-02T10:36:15.382Z,67.55
2018-12-02T10:38:45.331Z,67.65
2018-12-02T10:41:15.484Z,67.65
2018-12-02T10:43:44.775Z,67.80
2018-12-02T10:46:14.085Z,67.73
2018-12-02T10:48:43.333Z,67.85
2018-12-02T10:51:12.726Z,67.73
2018-12-02T10:53:41.996Z,67.86
2018-12-02T10:56:11.253Z,67.90
2018-12-02T10:58:41.075Z,67.95
2018-12-02T11:01:17.274Z,67.83
2018-12-02T11:03:47.177Z,67.92
2018-12-02T11:06:16.500Z,67.87
2018-12-02T11:08:47.170Z,67.94
2018-12-02T11:11:16.550Z,67.85
2018-12-02T11:13:45.811Z,67.94
2018-12-02T11:16:15.036Z,67.90
2018-12-02T11:18:44.960Z,68.05
2018-12-02T11:21:15.043Z,68.01
2018-12-02T11:23:44.352Z,68.04
2018-12-02T11:26:13.597Z,68.03
2018-12-02T11:28:43.306Z,68.06
2018-12-02T11:31:12.618Z,68.08
2018-12-02T11:33:41.978Z,67.99
2018-12-02T11:36:11.315Z,68.09
2018-12-02T11:38:41.718Z,68.11
2018-12-02T11:41:11.414Z,67.98
2018-12-02T11:43:40.985Z,68.06
2018-12-02T11:46:10.725Z,68.14
2018-12-02T11:49:43.435Z,68.00
2018-12-02T11:52:13.640Z,68.19
2018-12-02T11:54:43.068Z,68.24
2018-12-02T11:57:12.982Z,68.23
2018-12-02T11:59:42.277Z,68.26
2018-12-02T12:02:12.531Z,68.23
2018-12-02T12:04:41.782Z,68.19
2018-12-02T12:07:11.799Z,68.21
2018-12-02T12:09:41.297Z,68.34
2018-12-02T12:12:10.660Z,68.30
2018-12-02T12:14:39.869Z,68.30
2018-12-02T12:17:09.132Z,68.37
2018-12-02T12:19:39.118Z,68.32
2018-12-02T12:22:08.638Z,68.25
2018-12-02T12:24:37.926Z,68.39
2018-12-02T12:27:08.913Z,68.29
2018-12-02T12:29:38.528Z,68.37
2018-12-02T12:32:07.773Z,68.49
2018-12-02T12:34:37.357Z,68.17
2018-12-02T12:37:07.660Z,68.34
2018-12-02T12:39:36.919Z,68.49
2018-12-02T12:42:06.887Z,68.45
2018-12-02T12:44:36.100Z,68.45
2018-12-02T12:47:06.035Z,68.55
2018-12-02T12:49:35.987Z,68.46
2018-12-02T12:52:05.495Z,68.38
2018-12-02T12:54:34.710Z,68.46
2018-12-02T12:57:03.929Z,68.56
2018-12-02T12:59:33.989Z,68.45
2018-12-02T13:02:04.045Z,68.46
2018-12-02T13:04:33.653Z,68.53
2018-12-02T13:07:02.858Z,68.60
2018-12-02T13:09:32.966Z,68.51
2018-12-02T13:12:02.208Z,68.58
2018-12-02T13:14:31.842Z,68.35
2018-12-02T13:17:01.248Z,68.53
2018-12-02T13:19:31.140Z,68.52
2018-12-02T13:22:00.593Z,68.72
2018-12-02T13:24:29.818Z,68.59
2018-12-02T13:26:59.764Z,68.64
2018-12-02T13:29:29.033Z,68.58
2018-12-02T13:31:58.285Z,68.62
2018-12-02T13:34:28.063Z,68.70
2018-12-02T13:36:57.295Z,68.50
2018-12-02T13:39:26.541Z,68.82
2018-12-02T13:41:56.141Z,68.69
2018-12-02T13:44:25.433Z,68.86
2018-12-02T13:46:55.577Z,68.86
2018-12-02T13:49:24.999Z,68.69
2018-12-02T13:51:54.206Z,68.73
2018-12-02T13:54:35.693Z,68.68
2018-12-02T13:57:05.236Z,68.93
2018-12-02T13:59:34.456Z,68.93
2018-12-02T14:02:03.660Z,68.83
2018-12-02T14:04:32.961Z,68.78
2018-12-02T14:07:02.185Z,68.76
2018-12-02T14:09:33.026Z,69.04
2018-12-02T14:12:01.625Z,69.01
2018-12-02T14:14:34.684Z,68.85
2018-12-02T14:17:09.390Z,68.89
2018-12-02T14:19:39.779Z,69.00
2018-12-02T14:22:09.026Z,69.07
2018-12-02T14:24:38.235Z,69.10
2018-12-02T14:27:08.481Z,69.07
2018-12-02T14:29:43.808Z,69.20
2018-12-02T14:32:14.742Z,69.15
2018-12-02T14:34:43.987Z,69.08
2018-12-02T14:37:13.254Z,69.14
2018-12-02T14:39:42.559Z,69.12
2018-12-02T14:42:12.466Z,69.20
2018-12-02T14:44:42.060Z,69.19
2018-12-02T14:47:12.224Z,69.29
2018-12-02T14:49:41.491Z,69.15
2018-12-02T14:52:10.721Z,69.34
2018-12-02T14:54:39.992Z,69.32
2018-12-02T14:57:09.298Z,69.27
2018-12-02T14:59:38.545Z,69.36
2018-12-02T15:02:07.802Z,69.42
2018-12-02T15:04:37.040Z,69.33
2018-12-02T15:07:06.615Z,69.34
2018-12-02T15:09:35.854Z,69.51
2018-12-02T15:12:05.612Z,69.46
2018-12-02T15:14:35.696Z,69.34
2018-12-02T15:17:05.037Z,69.43
2018-12-02T15:19:34.335Z,69.43
2018-12-02T15:22:04.788Z,69.50
2018-12-02T15:24:34.050Z,69.52
2018-12-02T15:27:03.266Z,69.54
2018-12-02T15:29:34.103Z,69.48
2018-12-02T15:32:03.504Z,69.62
2018-12-02T15:34:32.934Z,69.57
2018-12-02T15:37:02.276Z,69.59
2018-12-02T15:39:32.521Z,69.53
2018-12-02T15:42:01.809Z,69.61
2018-12-02T15:44:31.107Z,69.76
2018-12-02T15:47:00.890Z,69.71
2018-12-02T15:49:30.121Z,69.65
2018-12-02T15:51:59.424Z,69.71
2018-12-02T15:54:29.593Z,69.70
2018-12-02T15:56:58.902Z,69.85
2018-12-02T15:59:28.967Z,69.81
2018-12-02T16:01:59.998Z,69.89
2018-12-02T16:04:29.240Z,69.96
2018-12-02T16:06:59.130Z,69.82
2018-12-02T16:09:28.479Z,69.95
2018-12-02T16:11:57.809Z,69.87
2018-12-02T16:14:28.067Z,69.84
2018-12-02T16:16:57.358Z,69.89
2018-12-02T16:19:26.669Z,69.93
2018-12-02T16:21:55.895Z,69.86
2018-12-02T16:24:25.788Z,70.03
2018-12-02T16:26:55.266Z,70.00
2018-12-02T16:29:24.534Z,70.05
2018-12-02T16:31:54.272Z,70.00
2018-12-02T16:34:23.602Z,70.15
2018-12-02T16:36:52.811Z,70.01
2018-12-02T16:39:22.161Z,69.98
2018-12-02T16:41:52.461Z,70.20
2018-12-02T16:44:23.113Z,70.09
2018-12-02T16:46:52.315Z,70.09
2018-12-02T16:49:22.663Z,70.17
2018-12-02T16:51:52.310Z,70.07
2018-12-02T16:54:22.454Z,70.06
2018-12-02T16:56:52.765Z,70.17
2018-12-02T16:59:27.596Z,70.08
2018-12-02T17:02:04.943Z,70.20
2018-12-02T17:04:29.288Z,70.26
2018-12-02T17:06:59.234Z,70.21
2018-12-02T17:09:29.214Z,70.24
2018-12-02T17:11:58.447Z,70.24
2018-12-02T17:14:27.722Z,70.20
2018-12-02T17:16:57.150Z,70.27
2018-12-02T17:19:27.649Z,70.39
2018-12-02T17:22:02.297Z,70.43
2018-12-02T17:24:31.796Z,70.43
2018-12-02T17:27:03.888Z,70.36
2018-12-02T17:29:41.469Z,70.36
2018-12-02T17:32:13.724Z,70.37
2018-12-02T17:34:43.011Z,70.49
2018-12-02T17:37:13.035Z,70.41
2018-12-02T17:39:45.766Z,70.42
2018-12-02T17:42:15.361Z,70.43
2018-12-02T17:44:45.898Z,70.40
2018-12-02T17:47:16.407Z,70.48
2018-12-02T17:49:45.767Z,70.61
2018-12-02T17:52:15.023Z,70.60
2018-12-02T17:54:46.723Z,70.58
2018-12-02T17:57:16.895Z,70.56
2018-12-02T17:59:47.118Z,70.70
2018-12-02T18:02:17.301Z,70.65
2018-12-02T18:04:50.809Z,70.63
2018-12-02T18:07:21.701Z,70.56
2018-12-02T18:09:51.142Z,70.70
2018-12-02T18:12:20.481Z,70.55
2018-12-02T18:14:49.746Z,70.65
2018-12-02T18:17:19.011Z,70.67
2018-12-02T18:19:53.171Z,70.79
2018-12-02T18:22:22.431Z,70.70
2018-12-02T18:24:51.922Z,70.73
2018-12-02T18:27:22.064Z,70.56
2018-12-02T18:29:51.433Z,70.71
2018-12-02T18:32:23.263Z,70.83
2018-12-02T18:34:55.298Z,70.65
2018-12-02T18:37:24.612Z,70.84
2018-12-02T18:39:54.996Z,70.88
2018-12-02T18:42:25.807Z,70.83
2018-12-02T18:44:55.051Z,70.78
2018-12-02T18:47:24.359Z,70.92
2018-12-02T18:49:54.348Z,70.86
2018-12-02T18:52:23.653Z,70.84
2018-12-02T18:54:52.908Z,70.98
2018-12-02T18:57:22.142Z,70.83
2018-12-02T18:59:51.371Z,70.89
2018-12-02T19:02:20.618Z,70.95
2018-12-02T19:04:49.919Z,70.98
2018-12-02T19:07:19.204Z,70.99
2018-12-02T19:09:50.311Z,70.99
2018-12-02T19:12:20.190Z,70.99
2018-12-02T19:14:49.425Z,70.94
2018-12-02T19:17:18.671Z,70.95
2018-12-02T19:19:48.006Z,71.01
2018-12-02T19:22:17.238Z,71.21
2018-12-02T19:24:46.587Z,71.00
2018-12-02T19:27:15.865Z,71.14
2018-12-02T19:29:45.111Z,71.08
2018-12-02T19:32:14.716Z,71.04
2018-12-02T19:34:44.512Z,71.11
2018-12-02T19:37:14.009Z,71.10
2018-12-02T19:39:43.610Z,71.14
2018-12-02T19:42:12.862Z,71.30
2018-12-02T19:44:42.114Z,71.15
2018-12-02T19:47:11.427Z,71.24
2018-12-02T19:49:40.654Z,71.24
2018-12-02T19:52:09.968Z,71.14
2018-12-02T19:54:39.201Z,71.27
2018-12-02T19:57:08.446Z,71.41
2018-12-02T19:59:39.299Z,71.31
2018-12-02T20:02:09.453Z,71.30
2018-12-02T20:04:40.008Z,71.40
2018-12-02T20:07:11.279Z,71.45
2018-12-02T20:09:41.633Z,71.38
2018-12-02T20:12:10.907Z,71.35
2018-12-02T20:14:40.120Z,71.43
2018-12-02T20:17:09.392Z,71.38
2018-12-02T20:19:43.857Z,71.44
2018-12-02T20:22:13.108Z,71.56
2018-12-02T20:24:42.404Z,71.35
2018-12-02T20:27:12.827Z,71.59
2018-12-02T20:29:42.041Z,71.42
2018-12-02T20:32:12.857Z,71.49
2018-12-02T20:34:42.211Z,71.46
2018-12-02T20:37:11.765Z,71.32
2018-12-02T20:39:41.760Z,71.54
2018-12-02T20:42:12.530Z,71.51
2018-12-02T20:44:42.373Z,71.63
2018-12-02T20:47:11.613Z,71.63
2018-12-02T20:49:41.539Z,71.50
2018-12-02T20:52:10.767Z,71.53
2018-12-02T20:54:40.122Z,71.57
2018-12-02T20:57:09.323Z,71.55
2018-12-02T20:59:38.581Z,71.65
2018-12-02T21:02:08.900Z,71.58
2018-12-02T21:04:38.559Z,71.66
2018-12-02T21:07:07.845Z,71.71
2018-12-02T21:09:37.997Z,71.69
2018-12-02T21:12:07.333Z,71.55
2018-12-02T21:14:37.191Z,71.57
2018-12-02T21:17:17.692Z,71.74
2018-12-02T21:19:48.692Z,71.73
2018-12-02T21:22:18.758Z,71.59
2018-12-02T21:24:48.202Z,71.68
2018-12-02T21:27:17.742Z,71.74
2018-12-02T21:29:48.548Z,71.69
2018-12-02T21:32:22.592Z,71.66
2018-12-02T21:34:54.761Z,71.78
2018-12-02T21:37:26.491Z,71.74
2018-12-02T21:39:55.804Z,71.77
2018-12-02T21:42:25.089Z,71.77
2018-12-02T21:44:54.329Z,71.86
2018-12-02T21:47:23.739Z,71.89
2018-12-02T21:49:53.274Z,71.74
2018-12-02T21:52:22.465Z,71.88
2018-12-02T21:54:51.727Z,71.71
2018-12-02T21:57:22.467Z,71.89
2018-12-02T21:59:56.562Z,71.78
2018-12-02T22:02:26.149Z,71.95
2018-12-02T22:04:55.980Z,71.87
2018-12-02T22:07:25.190Z,71.82
2018-12-02T22:09:54.425Z,71.95
2018-12-02T22:12:23.641Z,71.92
2018-12-02T22:14:53.077Z,71.83
2018-12-02T22:17:22.386Z,71.91
2018-12-02T22:19:52.229Z,71.84
2018-12-02T22:22:21.510Z,71.84
2018-12-02T22:24:50.752Z,71.96
2018-12-02T22:27:20.894Z,72.01
2018-12-02T22:29:51.645Z,71.89
2018-12-02T22:32:20.893Z,71.87
2018-12-02T22:34:50.198Z,72.07
2018-12-02T22:37:22.367Z,72.03
2018-12-02T22:39:51.638Z,72.02
2018-12-02T22:42:21.154Z,72.01
2018-12-02T22:44:50.948Z,72.00
2018-12-02T22:47:20.177Z,71.96
2018-12-02T22:49:50.480Z,71.96
2018-12-02T22:52:19.799Z,72.00
2018-12-02T22:54:49.006Z,72.11
2018-12-02T22:57:18.234Z,71.89
2018-12-02T22:59:51.456Z,71.99
2018-12-02T23:02:27.186Z,71.98
2018-12-02T23:04:56.443Z,71.92
2018-12-02T23:07:25.801Z,71.98
2018-12-02T23:09:55.025Z,72.00
2018-12-02T23:12:24.352Z,72.07
2018-12-02T23:14:53.583Z,72.13
2018-12-02T23:17:23.584Z,72.15
2018-12-02T23:19:52.880Z,72.01
2018-12-02T23:22:22.116Z,72.15
2018-12-02T23:24:51.389Z,72.06
2018-12-02T23:27:20.599Z,72.13
2018-12-02T23:29:49.800Z,72.15
2018-12-02T23:32:19.662Z,72.03
2018-12-02T23:34:48.881Z,72.13
2018-12-02T23:37:20.554Z,72.25
2018-12-02T23:39:47.340Z,72.10
2018-12-02T23:42:16.615Z,72.17
2018-12-02T23:44:45.812Z,72.21
2018-12-02T23:47:15.085Z,72.12
2018-12-02T23:49:44.353Z,72.23
2018-12-02T23:52:13.654Z,72.25
2018-12-02T23:54:42.874Z,72.10
2018-12-02T23:57:12.162Z,72.27
2018-12-02T23:59:41.495Z,72.30
